Time;durP1;ratioP1;P1;durP2;ratioP2;P2;SDS_P1;SDS_P2;PMS_P1;PMS_P2;Temp;Humidity;BMP_temperature;BMP_pressure;BME280_temperature;BME280_humidity;BME280_pressure;Samples;Min_cycle;Max_cycle;Signal;HPM_P1;HPM_P2
2023/01/20 00:08:32;;;;;;;57.95;30.50;;;;;;;-2.09;66.00;99586.03;30821104;28;97552;-63
2023/01/20 00:23:33;;;;;;;61.42;28.73;;;;;;;-2.20;66.17;99584.19;30853428;28;97692;-64
2023/01/20 00:38:34;;;;;;;61.30;28.90;;;;;;;-2.27;66.92;99588.13;30870055;28;96654;-64
2023/01/20 00:53:35;;;;;;;59.47;27.40;;;;;;;-2.32;67.04;99605.84;30871947;28;96926;-64
2023/01/20 01:08:35;;;;;;;61.30;29.25;;;;;;;-2.40;67.30;99615.03;30871131;28;96833;-63
2023/01/20 01:23:36;;;;;;;50.25;26.20;;;;;;;-2.45;67.48;99611.88;30869465;28;96695;-64
2023/01/20 01:38:36;;;;;;;49.28;27.08;;;;;;;-2.51;68.41;99608.88;30867744;28;96706;-65
2023/01/20 01:53:42;;;;;;;57.92;27.50;;;;;;;-2.59;68.44;99615.41;30865794;28;98584;-64
2023/01/20 02:08:43;;;;;;;57.75;27.00;;;;;;;-2.65;68.67;99646.25;30864435;28;96731;-63
2023/01/20 02:24:02;;;;;;;51.20;27.92;;;;;;;-2.57;68.73;99639.63;30863621;28;97525;-63
2023/01/20 02:39:20;;;;;;;71.18;32.28;;;;;;;-2.49;68.94;99657.38;30862048;28;97231;-64
2023/01/20 02:54:23;;;;;;;55.80;27.63;;;;;;;-2.44;69.05;99665.75;30859071;28;97348;-66
2023/01/20 03:09:29;;;;;;;49.85;26.42;;;;;;;-2.55;69.76;99666.44;30858821;28;97898;-63
2023/01/20 03:24:32;;;;;;;63.47;30.75;;;;;;;-2.80;69.49;99690.66;30857902;28;97270;-64
2023/01/20 03:39:38;;;;;;;74.60;34.28;;;;;;;-2.99;69.94;99705.75;30856359;28;98457;-63
2023/01/20 03:54:52;;;;;;;67.45;32.13;;;;;;;-3.30;70.01;99718.91;30853923;28;96740;-63
2023/01/20 04:09:59;;;;;;;63.33;33.63;;;;;;;-3.51;71.25;99728.84;30866738;28;98054;-64
2023/01/20 04:25:12;;;;;;;59.97;30.23;;;;;;;-3.75;71.18;99749.38;30872358;28;96678;-76
2023/01/20 04:40:12;;;;;;;61.65;30.85;;;;;;;-3.95;71.82;99773.94;30868191;28;96925;-76
2023/01/20 04:55:13;;;;;;;57.72;30.40;;;;;;;-4.16;72.48;99782.03;30868620;28;96690;-71
2023/01/20 05:10:13;;;;;;;61.55;27.13;;;;;;;-4.13;72.58;99818.31;30875537;28;96823;-67
2023/01/20 05:25:14;;;;;;;68.13;32.45;;;;;;;-3.82;73.56;99828.75;30984685;28;96715;-66
2023/01/20 05:40:14;;;;;;;66.93;31.67;;;;;;;-3.47;73.51;99837.13;30986224;28;96723;-66
2023/01/20 05:55:15;;;;;;;73.78;32.92;;;;;;;-2.92;74.16;99838.22;30983492;28;97125;-67
2023/01/20 06:10:16;;;;;;;61.33;30.35;;;;;;;-2.88;72.26;99828.47;30983924;28;96728;-66
2023/01/20 06:25:17;;;;;;;67.75;31.50;;;;;;;-3.46;72.63;99807.56;30982944;28;96724;-67
2023/01/20 06:40:17;;;;;;;60.22;30.60;;;;;;;-3.66;72.90;99815.66;30979853;28;97258;-68
2023/01/20 06:55:18;;;;;;;67.90;32.10;;;;;;;-3.75;73.42;99854.31;30978411;28;97218;-69
2023/01/20 07:10:18;;;;;;;60.88;32.42;;;;;;;-3.63;74.01;99873.63;30979359;28;96623;-66
2023/01/20 07:25:18;;;;;;;61.95;33.35;;;;;;;-3.33;74.10;99911.03;30973707;28;97347;-66
2023/01/20 07:40:19;;;;;;;64.35;30.30;;;;;;;-2.46;75.27;99940.66;30973820;28;97225;-67
2023/01/20 07:55:19;;;;;;;91.97;45.00;;;;;;;-1.08;73.89;99974.69;30971738;28;97623;-68
2023/01/20 08:10:20;;;;;;;98.65;44.78;;;;;;;0.46;72.94;99964.09;30973155;28;97260;-67
2023/01/20 08:25:20;;;;;;;91.35;42.83;;;;;;;1.66;71.71;99975.34;30970057;28;96655;-67
2023/01/20 08:40:21;;;;;;;89.10;41.78;;;;;;;3.17;68.66;100014.25;30969799;28;96732;-68
2023/01/20 08:55:21;;;;;;;80.88;40.45;;;;;;;10.48;61.22;100005.03;30980407;28;97420;-66
2023/01/20 09:10:22;;;;;;;75.30;41.55;;;;;;;9.21;56.44;100022.56;30988334;28;96919;-67
2023/01/20 09:25:22;;;;;;;70.20;40.38;;;;;;;5.97;57.63;100037.28;30987909;28;96906;-70
2023/01/20 09:56:03;;;;;;;56.87;30.83;;;;;;;17.20;43.95;100028.13;30987286;28;97061;-66
2023/01/20 10:11:10;;;;;;;50.90;27.83;;;;;;;18.12;39.37;100019.47;30983500;28;97359;-65
2023/01/20 10:26:33;;;;;;;37.47;23.07;;;;;;;18.07;33.93;100003.13;30980787;28;96912;-71
2023/01/20 10:41:40;;;;;;;55.27;30.97;;;;;;;15.66;33.30;100012.53;30977428;28;96848;-67
2023/01/20 10:56:52;;;;;;;54.03;31.13;;;;;;;12.04;36.33;100026.16;30979535;28;96884;-66
2023/01/20 11:11:52;;;;;;;70.77;35.33;;;;;;;9.88;39.52;100045.47;30977161;28;96669;-65
2023/01/20 11:27:02;;;;;;;70.30;34.60;;;;;;;8.01;42.46;100058.03;30977401;28;97661;-65
2023/01/20 11:42:19;;;;;;;66.17;35.03;;;;;;;6.29;45.11;100059.88;30971405;28;97526;-68
2023/01/20 11:57:20;;;;;;;57.63;31.98;;;;;;;5.83;47.22;100080.88;30972333;28;96680;-67
2023/01/20 12:12:29;;;;;;;55.28;26.75;;;;;;;4.27;49.34;100090.25;30913932;28;97397;-64
2023/01/20 12:27:30;;;;;;;52.60;26.88;;;;;;;3.13;51.54;100089.19;30976147;28;97109;-65
2023/01/20 12:42:40;;;;;;;52.30;27.20;;;;;;;3.17;52.91;100074.81;30976108;28;98309;-67
2023/01/20 12:58:02;;;;;;;49.53;24.90;;;;;;;3.19;54.43;100081.63;30874691;28;97041;-66
2023/01/20 13:13:16;;;;;;;53.45;27.65;;;;;;;3.57;54.86;100079.44;30913568;28;98736;-68
2023/01/20 13:28:19;;;;;;;58.00;26.50;;;;;;;3.54;55.07;100098.13;30939609;28;96915;-72
2023/01/20 13:43:24;;;;;;;25.10;14.15;;;;;;;3.42;55.68;100117.56;30907125;28;96676;-69
2023/01/20 13:58:31;;;;;;;27.30;13.57;;;;;;;3.26;55.20;100126.72;30898966;28;96685;-70
2023/01/20 14:13:31;;;;;;;33.58;18.13;;;;;;;2.97;56.03;100153.59;30902736;28;97201;-76
2023/01/20 14:28:34;;;;;;;30.23;16.85;;;;;;;2.67;57.04;100157.69;30908651;28;97719;-70
2023/01/20 14:43:34;;;;;;;31.30;16.83;;;;;;;2.35;57.71;100165.44;30952615;28;97959;-71
2023/01/20 14:58:48;;;;;;;23.75;14.05;;;;;;;1.99;58.23;100181.25;30965297;28;97233;-72
2023/01/20 15:13:57;;;;;;;19.90;10.55;;;;;;;1.80;59.41;100207.22;30965425;28;97162;-69
2023/01/20 15:28:58;;;;;;;22.15;13.20;;;;;;;1.46;59.85;100200.03;30966325;28;97234;-66
2023/01/20 15:43:58;;;;;;;27.88;15.18;;;;;;;1.26;60.47;100235.59;30973576;28;96640;-74
2023/01/20 15:58:59;;;;;;;26.58;16.52;;;;;;;1.13;61.27;100245.25;30969137;28;97637;-76
2023/01/20 16:13:59;;;;;;;30.35;17.23;;;;;;;0.90;61.85;100234.59;30970260;28;97040;-76
2023/01/20 16:29:00;;;;;;;37.58;18.50;;;;;;;0.67;62.68;100258.00;30970284;28;96735;-77
2023/01/20 16:44:00;;;;;;;41.42;19.73;;;;;;;0.59;63.56;100286.53;30967854;28;96654;-75
2023/01/20 16:59:01;;;;;;;37.38;21.33;;;;;;;0.45;64.01;100299.72;30963837;28;96856;-77
2023/01/20 17:14:03;;;;;;;41.00;22.27;;;;;;;0.30;64.53;100326.00;30969927;28;98332;-75
2023/01/20 17:29:04;;;;;;;46.15;24.08;;;;;;;0.20;65.11;100351.13;30982997;28;97525;-77
2023/01/20 17:44:05;;;;;;;52.67;28.48;;;;;;;0.39;65.59;100376.16;30983830;28;97477;-77
2023/01/20 17:59:05;;;;;;;61.92;28.80;;;;;;;0.45;66.02;100373.09;30982820;28;96725;-78
2023/01/20 18:14:06;;;;;;;59.20;30.23;;;;;;;0.23;66.59;100373.66;30981642;28;96832;-75
2023/01/20 18:29:11;;;;;;;58.10;28.77;;;;;;;-0.04;66.95;100375.34;30980473;28;96782;-77
2023/01/20 18:44:11;;;;;;;;;;;;;;;0.12;67.90;100374.34;30978679;28;96806;-77
2023/01/20 18:59:12;;;;;;;55.17;27.88;;;;;;;0.33;67.92;100390.50;30977441;28;97478;-76
2023/01/20 19:14:13;;;;;;;46.08;24.92;;;;;;;0.30;68.35;100394.16;30972530;28;96752;-74
2023/01/20 19:29:16;;;;;;;47.83;24.65;;;;;;;0.26;68.09;100397.91;30974172;28;96685;-72
2023/01/20 19:44:17;;;;;;;59.08;29.05;;;;;;;0.15;68.27;100416.06;30974472;28;96785;-73
2023/01/20 19:59:17;;;;;;;57.00;28.50;;;;;;;0.07;68.74;100423.56;30970562;28;97218;-75
2023/01/20 20:14:20;;;;;;;58.45;30.58;;;;;;;0.12;68.99;100411.03;30973225;28;97043;-72
2023/01/20 20:29:20;;;;;;;63.20;28.77;;;;;;;0.09;68.82;100406.00;30971604;28;96539;-75
2023/01/20 20:44:21;;;;;;;69.57;30.83;;;;;;;0.10;69.23;100392.78;30971105;28;96734;-76
2023/01/20 20:59:23;;;;;;;74.18;31.50;;;;;;;0.06;69.38;100383.44;30987686;28;96882;-70
2023/01/20 21:14:24;;;;;;;60.17;30.58;;;;;;;-0.05;69.61;100392.00;30986976;28;96939;-70
2023/01/20 21:29:26;;;;;;;74.07;32.05;;;;;;;-0.14;69.59;100413.50;30968465;28;97084;-66
2023/01/20 21:44:31;;;;;;;65.80;25.80;;;;;;;-0.37;69.71;100426.25;30986094;28;97389;-67
2023/01/20 21:59:32;;;;;;;60.17;21.58;;;;;;;-0.62;70.04;100431.31;30982694;28;97004;-74
2023/01/20 22:14:32;;;;;;;58.17;21.00;;;;;;;-0.80;69.93;100418.38;30983539;28;96877;-72
2023/01/20 22:29:33;;;;;;;45.30;20.17;;;;;;;-1.02;70.20;100397.91;30983039;28;96800;-74
2023/01/20 22:44:33;;;;;;;58.67;20.35;;;;;;;-1.18;70.80;100392.72;30981339;28;96755;-67
2023/01/20 22:59:34;;;;;;;59.65;22.42;;;;;;;-1.14;71.16;100417.75;30982273;28;96550;-74
2023/01/20 23:29:54;;;;;;;44.65;17.98;;;;;;;-1.09;71.54;100415.72;30981204;28;96824;-73
2023/01/20 23:44:55;;;;;;;42.33;19.83;;;;;;;-1.09;71.59;100407.03;30979308;28;97351;-75
2023/01/20 23:59:55;;;;;;;40.38;17.17;;;;;;;-1.04;71.93;100411.06;30977260;28;97275;-75
